Time;durP1;ratioP1;P1;durP2;ratioP2;P2;SDS_P1;SDS_P2;PMS_P1;PMS_P2;Temp;Humidity;BMP_temperature;BMP_pressure;BME280_temperature;BME280_humidity;BME280_pressure;Samples;Min_cycle;Max_cycle;Signal;HPM_P1;HPM_P2
2022/03/30 00:00:19;;;;;;;23.65;12.40;;;;;;;5.85;59.56;94346.41;5031789;28;20455;-73
2022/03/30 00:02:46;;;;;;;22.92;14.23;;;;;;;5.82;59.80;94358.63;5030531;28;20488;-73
2022/03/30 00:05:11;;;;;;;25.67;13.50;;;;;;;5.72;59.93;94347.31;5031667;28;20037;-73
2022/03/30 00:07:37;;;;;;;23.23;13.18;;;;;;;5.76;59.81;94346.16;5030345;28;20472;-73
2022/03/30 00:10:03;;;;;;;24.95;13.90;;;;;;;5.74;59.90;94350.59;5030098;28;20056;-73
2022/03/30 00:12:29;;;;;;;21.02;12.10;;;;;;;5.75;60.38;94347.09;5030307;28;20038;-73
2022/03/30 00:14:54;;;;;;;18.42;12.35;;;;;;;5.76;60.49;94347.91;4997483;28;20029;-73
2022/03/30 00:17:20;;;;;;;24.30;11.68;;;;;;;5.73;60.78;94343.78;5031443;28;20034;-73
2022/03/30 00:19:45;;;;;;;24.23;12.25;;;;;;;5.67;60.93;94339.06;5047252;28;20053;-73
2022/03/30 00:22:11;;;;;;;24.73;12.68;;;;;;;5.65;60.68;94335.78;5033437;28;20032;-73
2022/03/30 00:24:38;;;;;;;22.25;12.52;;;;;;;5.83;60.86;94338.81;5033427;28;20067;-73
2022/03/30 00:27:05;;;;;;;20.90;12.00;;;;;;;5.89;60.14;94329.81;5049940;28;20032;-73
2022/03/30 00:29:31;;;;;;;20.88;11.43;;;;;;;5.80;60.62;94328.72;5049974;28;20048;-73
2022/03/30 00:31:56;;;;;;;20.73;11.88;;;;;;;5.85;60.34;94329.22;5049861;28;20029;-73
2022/03/30 00:34:22;;;;;;;19.50;12.30;;;;;;;5.80;60.80;94324.38;5051142;28;20025;-72
2022/03/30 00:36:47;;;;;;;25.15;12.25;;;;;;;5.75;60.68;94330.81;5033177;28;20032;-74
2022/03/30 00:39:13;;;;;;;20.27;11.57;;;;;;;5.92;59.81;94332.16;5033272;28;20040;-73
2022/03/30 00:41:38;;;;;;;28.10;12.57;;;;;;;5.80;60.01;94324.38;5016637;28;20029;-73
2022/03/30 00:44:14;;;;;;;20.10;11.75;;;;;;;5.90;60.16;94321.94;5051116;28;20489;-73
2022/03/30 00:46:42;;;;;;;22.35;12.07;;;;;;;5.76;60.67;94314.41;5033963;28;20021;-73
2022/03/30 00:49:08;;;;;;;17.52;11.52;;;;;;;5.76;60.52;94316.97;5017368;28;20041;-74
2022/03/30 00:51:33;;;;;;;20.13;11.77;;;;;;;5.77;60.84;94327.19;5049556;28;20025;-73
2022/03/30 00:53:59;;;;;;;19.55;11.57;;;;;;;5.80;60.50;94321.81;5049664;28;20183;-73
2022/03/30 00:56:24;;;;;;;22.73;12.73;;;;;;;5.77;60.40;94318.63;5049547;28;20170;-73
2022/03/30 00:58:50;;;;;;;23.60;12.10;;;;;;;5.94;59.61;94322.59;5051269;28;20492;-73
2022/03/30 01:01:16;;;;;;;21.30;11.25;;;;;;;5.88;59.00;94323.00;5049501;28;20509;-74
2022/03/30 01:03:41;;;;;;;21.67;12.25;;;;;;;5.62;60.15;94323.13;5033134;28;20086;-73
2022/03/30 01:06:06;;;;;;;21.70;11.77;;;;;;;5.63;60.14;94329.94;5050641;28;20419;-73
2022/03/30 01:08:32;;;;;;;21.30;11.48;;;;;;;5.73;59.66;94327.50;5051117;28;20029;-73
2022/03/30 01:10:58;;;;;;;22.30;12.02;;;;;;;5.65;59.71;94310.00;5032936;28;20040;-73
2022/03/30 01:13:24;;;;;;;16.63;11.50;;;;;;;5.52;60.14;94301.53;5033087;28;20060;-73
2022/03/30 01:15:49;;;;;;;23.08;11.85;;;;;;;5.50;60.90;94321.41;5032679;28;20509;-73
2022/03/30 01:18:15;;;;;;;19.15;12.05;;;;;;;5.48;60.78;94305.25;5029153;28;20103;-73
2022/03/30 01:20:40;;;;;;;18.95;11.35;;;;;;;5.50;59.96;94304.19;5029944;28;20030;-74
2022/03/30 01:23:06;;;;;;;20.77;12.02;;;;;;;5.40;60.62;94310.09;5033600;28;20101;-73
2022/03/30 01:25:31;;;;;;;19.98;12.80;;;;;;;5.33;61.30;94289.13;5034670;28;20072;-73
2022/03/30 01:27:58;;;;;;;18.45;11.23;;;;;;;5.33;61.52;94296.84;5034869;28;20472;-74
2022/03/30 01:33:07;;;;;;;20.23;11.57;;;;;;;5.28;62.20;94302.31;5033451;28;20159;-73
2022/03/30 01:35:33;;;;;;;19.02;11.98;;;;;;;5.36;61.61;94297.44;5033282;28;20033;-73
2022/03/30 01:37:59;;;;;;;20.08;11.77;;;;;;;5.31;61.09;94296.94;5033280;28;20021;-73
2022/03/30 01:40:24;;;;;;;22.02;13.00;;;;;;;5.23;61.18;94296.66;5049734;28;20488;-74
2022/03/30 01:42:50;;;;;;;21.38;13.27;;;;;;;5.09;62.05;94307.09;5033100;28;20106;-74
2022/03/30 01:45:16;;;;;;;19.63;12.05;;;;;;;5.18;62.33;94298.72;5049667;28;20056;-74
2022/03/30 01:47:54;;;;;;;24.70;12.93;;;;;;;5.16;62.58;94303.19;5016663;28;20037;-74
2022/03/30 01:50:20;;;;;;;21.48;11.77;;;;;;;5.03;62.18;94286.94;5017559;28;20117;-73
2022/03/30 01:52:46;;;;;;;21.08;12.60;;;;;;;5.04;62.60;94317.72;5033001;28;20121;-74
2022/03/30 01:55:11;;;;;;;24.02;13.98;;;;;;;5.19;62.21;94318.41;5016442;28;20025;-73
2022/03/30 01:57:37;;;;;;;22.80;13.80;;;;;;;5.24;61.95;94315.53;5034185;28;20476;-73
2022/03/30 02:00:04;;;;;;;22.73;12.55;;;;;;;5.00;61.76;94318.03;5034070;28;20106;-73
2022/03/30 02:02:30;;;;;;;24.88;13.27;;;;;;;4.85;61.65;94302.72;5016626;28;20036;-74
2022/03/30 02:04:55;;;;;;;19.92;11.90;;;;;;;4.84;62.53;94326.78;5033970;28;20399;-73
2022/03/30 02:07:20;;;;;;;23.05;12.50;;;;;;;4.92;63.01;94319.38;5033810;28;20040;-74
2022/03/30 02:09:46;;;;;;;20.17;12.32;;;;;;;4.89;63.19;94317.00;5032681;28;20026;-73
2022/03/30 02:12:12;;;;;;;20.35;11.57;;;;;;;4.98;62.82;94328.44;5032613;28;20030;-74
2022/03/30 02:14:37;;;;;;;18.52;11.40;;;;;;;4.88;62.49;94305.09;5032880;28;20493;-73
2022/03/30 02:17:03;;;;;;;24.17;12.30;;;;;;;4.92;63.09;94327.09;5033698;28;20044;-74
2022/03/30 02:19:29;;;;;;;27.65;12.75;;;;;;;4.85;63.35;94330.22;5032333;28;20042;-74
2022/03/30 02:21:54;;;;;;;21.65;13.13;;;;;;;4.73;63.43;94326.69;5032387;28;20419;-73
2022/03/30 02:24:20;;;;;;;19.55;11.98;;;;;;;4.83;63.39;94332.06;5015986;28;20042;-74
2022/03/30 02:26:47;;;;;;;22.25;12.07;;;;;;;4.88;62.63;94341.13;5033481;28;20037;-74
2022/03/30 02:29:13;;;;;;;20.80;11.80;;;;;;;4.85;62.12;94332.78;5032228;28;20032;-73
2022/03/30 02:31:39;;;;;;;22.65;11.85;;;;;;;4.74;62.74;94337.84;5015589;28;20414;-73
2022/03/30 02:34:04;;;;;;;22.95;11.82;;;;;;;4.70;63.52;94329.47;5032244;28;20029;-73
2022/03/30 02:36:30;;;;;;;19.15;11.73;;;;;;;4.78;64.22;94340.09;5015447;28;20083;-73
2022/03/30 02:38:55;;;;;;;24.52;12.05;;;;;;;4.66;64.12;94333.19;5033341;28;20435;-74
2022/03/30 02:41:21;;;;;;;23.08;12.65;;;;;;;4.83;63.33;94340.59;5033217;28;20404;-73
2022/03/30 02:43:47;;;;;;;25.95;12.25;;;;;;;4.81;63.43;94341.63;5015938;28;20045;-73
2022/03/30 02:46:12;;;;;;;21.25;11.85;;;;;;;4.72;63.49;94337.13;5031987;28;20033;-73
2022/03/30 02:48:38;;;;;;;19.95;12.27;;;;;;;4.78;63.29;94344.41;5032298;28;20040;-73
2022/03/30 02:51:06;;;;;;;28.38;12.60;;;;;;;4.74;63.90;94343.00;5033317;28;20029;-74
2022/03/30 02:53:32;;;;;;;20.98;12.25;;;;;;;4.79;63.54;94339.19;5033545;28;20048;-73
2022/03/30 02:55:58;;;;;;;20.73;11.77;;;;;;;4.65;63.59;94336.69;5015349;28;20057;-74
2022/03/30 02:58:23;;;;;;;18.70;12.60;;;;;;;4.51;64.84;94336.78;5031843;28;20037;-73
2022/03/30 03:00:49;;;;;;;22.73;13.00;;;;;;;4.58;64.69;94335.47;5015218;28;20037;-73
2022/03/30 03:03:15;;;;;;;26.23;13.82;;;;;;;4.62;65.61;94329.19;5031777;28;20041;-74
2022/03/30 03:05:41;;;;;;;24.33;14.38;;;;;;;4.61;65.43;94312.09;5015109;28;20084;-73
2022/03/30 03:08:08;;;;;;;21.45;12.70;;;;;;;4.78;64.61;94324.66;5031604;28;20030;-74
2022/03/30 03:10:34;;;;;;;23.17;13.32;;;;;;;4.78;64.30;94326.41;5032720;28;20022;-73
2022/03/30 03:13:03;;;;;;;26.52;13.77;;;;;;;4.86;63.95;94314.66;5031550;28;20108;-73
2022/03/30 03:15:28;;;;;;;61.20;29.88;;;;;;;5.05;63.40;94321.94;5031498;28;20040;-73
2022/03/30 03:17:54;;;;;;;42.60;22.35;;;;;;;4.85;63.65;94313.03;5032997;28;20037;-73
2022/03/30 03:20:19;;;;;;;33.55;17.33;;;;;;;4.81;63.77;94314.13;5018080;28;20044;-73
2022/03/30 03:22:45;;;;;;;20.67;12.48;;;;;;;4.88;64.11;94324.84;5051252;28;20033;-74
2022/03/30 03:25:10;;;;;;;21.33;11.77;;;;;;;4.91;64.15;94320.31;5052492;28;20033;-73
2022/03/30 03:27:37;;;;;;;22.48;13.43;;;;;;;4.96;63.97;94314.88;5034500;28;20024;-73
2022/03/30 03:30:03;;;;;;;21.42;12.73;;;;;;;5.05;64.21;94326.28;5034452;28;20029;-73
2022/03/30 03:32:28;;;;;;;25.50;13.50;;;;;;;5.07;63.48;94320.09;5051090;28;20086;-73
2022/03/30 03:34:54;;;;;;;19.05;13.07;;;;;;;4.97;63.99;94313.09;5051003;28;20388;-73
2022/03/30 03:37:19;;;;;;;23.73;13.77;;;;;;;4.93;64.11;94323.63;5050917;28;20033;-73
2022/03/30 03:39:45;;;;;;;38.60;19.48;;;;;;;5.01;63.89;94329.97;5017712;28;20487;-73
2022/03/30 03:42:10;;;;;;;27.90;15.32;;;;;;;5.05;63.94;94321.13;5050817;28;20467;-74
2022/03/30 03:44:36;;;;;;;23.52;13.38;;;;;;;5.24;63.33;94336.94;5051343;28;20515;-73
2022/03/30 03:47:01;;;;;;;23.80;13.05;;;;;;;5.19;62.91;94323.56;5050930;28;20453;-73
2022/03/30 03:49:27;;;;;;;24.88;12.98;;;;;;;5.04;63.66;94314.31;5034021;28;20597;-74
2022/03/30 03:51:52;;;;;;;24.73;13.60;;;;;;;5.01;63.98;94311.94;5051813;28;20039;-73
2022/03/30 03:54:18;;;;;;;27.55;14.13;;;;;;;5.06;63.98;94325.34;5033963;28;20426;-73
2022/03/30 03:56:43;;;;;;;25.48;13.23;;;;;;;5.12;62.93;94317.19;5050423;28;20033;-73
2022/03/30 03:59:10;;;;;;;23.80;13.48;;;;;;;5.04;63.06;94322.88;5051752;28;20025;-73
2022/03/30 04:01:35;;;;;;;21.23;13.43;;;;;;;4.91;63.97;94309.19;5033789;28;20403;-73
2022/03/30 04:04:01;;;;;;;31.77;14.13;;;;;;;4.87;63.78;94316.28;5051681;28;20033;-74
2022/03/30 04:06:26;;;;;;;23.75;12.95;;;;;;;4.87;64.10;94318.03;5033695;28;20022;-73
2022/03/30 04:08:51;;;;;;;31.48;13.95;;;;;;;4.82;64.50;94314.94;5033678;28;20037;-74
2022/03/30 04:11:17;;;;;;;22.00;12.88;;;;;;;4.72;64.79;94304.47;5050290;28;20055;-73
2022/03/30 04:13:42;;;;;;;23.40;13.40;;;;;;;4.84;64.29;94313.94;5033922;28;20494;-73
2022/03/30 04:16:08;;;;;;;22.95;12.80;;;;;;;4.92;64.45;94314.22;5051291;28;20041;-73
2022/03/30 04:18:33;;;;;;;22.77;12.80;;;;;;;5.02;64.37;94308.47;5042677;28;20132;-73
2022/03/30 04:20:59;;;;;;;24.38;12.50;;;;;;;5.12;63.91;94309.44;5031026;28;20427;-74
2022/03/30 04:23:24;;;;;;;22.15;13.38;;;;;;;5.19;63.44;94318.41;5031326;28;20522;-73
2022/03/30 04:25:49;;;;;;;29.15;12.60;;;;;;;5.27;63.39;94318.69;5030151;28;20148;-74
2022/03/30 04:28:17;;;;;;;21.50;12.57;;;;;;;5.38;62.13;94313.63;5030202;28;20475;-74
2022/03/30 04:30:42;;;;;;;21.05;12.88;;;;;;;5.27;62.29;94310.16;5030088;28;20041;-74
2022/03/30 04:33:09;;;;;;;24.88;13.50;;;;;;;5.26;63.03;94319.63;5030186;28;20033;-73
2022/03/30 04:35:35;;;;;;;23.70;14.07;;;;;;;5.22;62.94;94315.63;5031216;28;20499;-74
2022/03/30 04:38:00;;;;;;;22.98;13.82;;;;;;;5.24;62.67;94311.19;5013296;28;20064;-73
2022/03/30 04:40:26;;;;;;;27.23;15.38;;;;;;;5.46;61.98;94314.81;5030002;28;20488;-74
2022/03/30 04:42:52;;;;;;;20.05;12.52;;;;;;;5.36;62.21;94320.63;5013392;28;20103;-74
2022/03/30 04:45:18;;;;;;;25.35;12.77;;;;;;;5.25;62.45;94319.75;5030206;28;20087;-73
2022/03/30 04:47:43;;;;;;;21.85;13.75;;;;;;;5.32;62.45;94324.38;5029867;28;20030;-74
2022/03/30 04:50:09;;;;;;;25.48;14.38;;;;;;;5.32;62.65;94319.22;5013338;28;20061;-73
2022/03/30 04:52:38;;;;;;;31.98;13.88;;;;;;;5.29;62.59;94311.69;5021926;28;20108;-74
2022/03/30 04:55:05;;;;;;;23.98;13.52;;;;;;;5.20;63.40;94296.88;5041269;28;20095;-74
2022/03/30 04:57:30;;;;;;;20.63;12.57;;;;;;;5.30;63.43;94297.88;5032183;28;20037;-74
2022/03/30 04:59:56;;;;;;;26.98;12.70;;;;;;;5.35;63.48;94303.53;5029450;28;20108;-74
2022/03/30 05:02:22;;;;;;;31.90;14.15;;;;;;;5.37;63.45;94311.13;5011537;28;20420;-74
2022/03/30 05:04:47;;;;;;;27.15;13.65;;;;;;;5.52;63.19;94314.41;5030063;28;20115;-74
2022/03/30 05:07:14;;;;;;;20.65;12.20;;;;;;;5.61;62.74;94313.75;5030776;28;20038;-74
2022/03/30 05:09:39;;;;;;;29.58;13.02;;;;;;;5.82;62.51;94308.78;5027162;28;20029;-74
2022/03/30 05:12:05;;;;;;;27.75;12.93;;;;;;;6.07;61.87;94313.03;5028993;28;20645;-74
2022/03/30 05:14:32;;;;;;;23.58;12.98;;;;;;;6.59;60.56;94324.66;5024185;28;20036;-74
2022/03/30 05:16:58;;;;;;;20.50;12.40;;;;;;;7.12;59.24;94321.53;5044348;28;20029;-74
2022/03/30 05:19:23;;;;;;;16.92;11.55;;;;;;;7.71;57.41;94320.38;5048426;28;20530;-74
2022/03/30 05:21:49;;;;;;;21.58;12.52;;;;;;;8.18;55.71;94319.16;5047099;28;20632;-75
2022/03/30 05:24:14;;;;;;;18.35;11.88;;;;;;;8.60;54.74;94320.97;5010674;28;20044;-74
2022/03/30 05:26:40;;;;;;;25.02;12.98;;;;;;;8.98;53.51;94322.16;5027549;28;20026;-74
2022/03/30 05:29:05;;;;;;;21.45;12.23;;;;;;;9.27;52.44;94322.25;5028595;28;20033;-74
2022/03/30 05:31:30;;;;;;;24.88;12.38;;;;;;;9.52;51.76;94313.19;5045525;28;20407;-74
2022/03/30 05:33:56;;;;;;;20.33;12.18;;;;;;;9.88;50.56;94322.13;5028464;28;20037;-74
2022/03/30 05:36:21;;;;;;;25.30;14.73;;;;;;;9.87;50.94;94322.28;5011547;28;20083;-75
2022/03/30 05:38:48;;;;;;;23.13;12.63;;;;;;;9.85;51.04;94314.63;5030432;28;20401;-74
2022/03/30 05:41:14;;;;;;;22.52;13.15;;;;;;;9.74;51.79;94315.56;5041390;28;20045;-74
2022/03/30 05:43:39;;;;;;;21.13;12.60;;;;;;;9.69;51.74;94322.91;5035731;28;20036;-75
2022/03/30 05:46:08;;;;;;;20.80;12.63;;;;;;;9.78;52.07;94323.91;5030471;28;20040;-74
2022/03/30 05:48:34;;;;;;;19.27;11.77;;;;;;;9.80;51.86;94309.81;5028738;28;20503;-75
2022/03/30 05:50:59;;;;;;;16.95;10.95;;;;;;;9.91;52.48;94321.03;5028042;28;20042;-74
2022/03/30 05:53:24;;;;;;;25.10;10.98;;;;;;;10.04;51.97;94326.81;5044948;28;20038;-74
2022/03/30 05:55:50;;;;;;;21.52;11.73;;;;;;;10.10;51.67;94315.06;5041600;28;20057;-75
2022/03/30 06:15:11;;;;;;;24.65;12.45;;;;;;;11.54;48.29;94328.72;5104614;27;20916;-68
2022/03/30 06:17:36;;;;;;;20.42;12.68;;;;;;;11.54;47.97;94302.69;5095006;28;20044;-68
2022/03/30 06:20:03;;;;;;;24.10;12.98;;;;;;;11.76;47.50;94322.28;5087434;28;20031;-68
2022/03/30 06:22:30;;;;;;;23.45;13.57;;;;;;;11.78;47.12;94324.72;5086902;28;20041;-68
2022/03/30 06:24:56;;;;;;;24.42;14.68;;;;;;;11.79;45.89;94319.41;5081920;28;20063;-68
2022/03/30 06:27:22;;;;;;;23.45;14.75;;;;;;;11.69;46.17;94317.81;5086280;28;20062;-69
2022/03/30 06:29:47;;;;;;;25.83;14.60;;;;;;;11.66;46.25;94305.91;5062265;28;20044;-68
2022/03/30 06:32:12;;;;;;;32.38;15.88;;;;;;;11.71;46.38;94319.31;5049733;28;20029;-68
2022/03/30 06:34:38;;;;;;;33.53;18.00;;;;;;;11.55;46.69;94309.53;5068169;28;20485;-68
2022/03/30 06:37:05;;;;;;;24.80;16.55;;;;;;;11.77;47.29;94329.13;5085925;28;20032;-69
2022/03/30 06:39:31;;;;;;;39.95;20.77;;;;;;;12.05;46.48;94335.13;5085797;28;20040;-68
2022/03/30 06:41:57;;;;;;;36.88;17.33;;;;;;;12.02;45.74;94332.03;5085649;28;20055;-68
2022/03/30 06:44:23;;;;;;;30.35;16.80;;;;;;;11.98;46.36;94328.91;5086295;28;20035;-68
2022/03/30 06:46:48;;;;;;;28.00;14.98;;;;;;;11.94;45.40;94332.75;5082603;28;20032;-69
2022/03/30 06:49:14;;;;;;;30.90;15.13;;;;;;;11.92;45.63;94333.84;5086584;28;20500;-68
2022/03/30 06:51:39;;;;;;;25.85;15.52;;;;;;;12.12;45.43;94327.56;5083992;28;20421;-68
2022/03/30 06:54:05;;;;;;;24.10;16.35;;;;;;;12.21;45.61;94346.69;5084606;28;20040;-68
2022/03/30 06:56:31;;;;;;;32.63;16.10;;;;;;;12.31;45.25;94339.63;5083804;28;20040;-68
2022/03/30 06:58:56;;;;;;;29.35;17.02;;;;;;;12.41;45.43;94347.38;5086809;28;20508;-70
2022/03/30 07:01:22;;;;;;;28.77;15.88;;;;;;;12.49;45.04;94344.84;5085912;28;20639;-69
2022/03/30 07:03:47;;;;;;;30.70;16.40;;;;;;;12.39;45.16;94346.69;5087415;28;20040;-69
2022/03/30 07:06:12;;;;;;;31.63;18.05;;;;;;;12.31;45.21;94350.03;5085232;28;20398;-68
2022/03/30 07:11:22;;;;;;;28.38;17.08;;;;;;;12.36;45.94;94349.59;5086260;28;20040;-71
2022/03/30 07:13:48;;;;;;;28.73;15.45;;;;;;;12.62;44.22;94336.63;5067915;28;20060;-71
2022/03/30 07:16:14;;;;;;;27.27;16.70;;;;;;;12.62;44.69;94341.81;5072027;28;20107;-72
2022/03/30 07:18:39;;;;;;;26.60;15.88;;;;;;;12.66;44.70;94340.56;5071471;28;20059;-71
2022/03/30 07:21:04;;;;;;;34.22;17.27;;;;;;;12.53;44.75;94325.31;5073848;28;20029;-71
2022/03/30 07:23:30;;;;;;;34.35;17.55;;;;;;;12.50;45.19;94342.06;5055507;28;20040;-71
2022/03/30 07:26:00;;;;;;;28.13;15.63;;;;;;;12.60;44.62;94330.75;5055506;28;20518;-71
2022/03/30 07:28:25;;;;;;;26.70;14.10;;;;;;;12.81;43.75;94336.44;5073564;28;20051;-71
2022/03/30 07:30:52;;;;;;;26.15;15.02;;;;;;;12.64;44.18;94321.66;5055404;28;20020;-70
2022/03/30 07:33:18;;;;;;;30.60;14.27;;;;;;;12.55;44.82;94323.38;5071993;28;20037;-70
2022/03/30 07:35:46;;;;;;;33.80;16.05;;;;;;;12.71;44.81;94328.72;5072031;28;20104;-70
2022/03/30 07:38:15;;;;;;;22.85;14.63;;;;;;;12.87;44.31;94332.41;5055696;28;20029;-70
2022/03/30 07:40:41;;;;;;;27.20;14.57;;;;;;;12.94;43.99;94328.22;5071957;28;20024;-70
2022/03/30 07:43:07;;;;;;;26.33;14.52;;;;;;;13.02;44.47;94327.47;5073112;28;20036;-70
2022/03/30 07:45:33;;;;;;;28.10;14.98;;;;;;;12.97;44.21;94323.50;5055141;28;20024;-71
2022/03/30 07:47:58;;;;;;;22.52;13.68;;;;;;;13.15;43.55;94335.69;5073427;28;20033;-70
2022/03/30 07:50:24;;;;;;;25.17;14.50;;;;;;;13.21;43.74;94335.09;5071909;28;20146;-70
2022/03/30 07:52:50;;;;;;;27.60;14.82;;;;;;;13.26;43.46;94332.88;5072957;28;20508;-70
2022/03/30 07:55:15;;;;;;;27.77;14.50;;;;;;;13.32;43.52;94326.22;5072959;28;20036;-70
2022/03/30 07:57:42;;;;;;;23.27;13.20;;;;;;;13.43;42.88;94322.47;5071565;28;20036;-70
2022/03/30 08:00:09;;;;;;;25.33;14.50;;;;;;;13.50;43.77;94328.72;5071673;28;20032;-70
2022/03/30 08:02:35;;;;;;;25.35;15.15;;;;;;;13.60;43.22;94329.44;5038419;28;20032;-70
2022/03/30 08:05:00;;;;;;;27.10;14.63;;;;;;;13.79;42.91;94344.00;5071471;28;20081;-69
2022/03/30 08:07:30;;;;;;;26.85;16.17;;;;;;;13.85;42.09;94333.75;5054729;28;20029;-70
2022/03/30 08:09:56;;;;;;;24.02;13.48;;;;;;;13.88;42.50;94332.63;5055242;28;20402;-70
2022/03/30 08:12:22;;;;;;;24.10;14.02;;;;;;;13.79;42.86;94328.34;5072562;28;20031;-70
2022/03/30 08:14:48;;;;;;;28.80;15.32;;;;;;;13.71;43.06;94325.72;5054819;28;20048;-70
2022/03/30 08:17:13;;;;;;;27.25;15.55;;;;;;;13.74;42.80;94328.81;5071292;28;20032;-71
2022/03/30 08:19:39;;;;;;;26.65;14.40;;;;;;;13.92;42.46;94314.84;5072833;28;20409;-70
2022/03/30 08:24:48;;;;;;;22.08;13.00;;;;;;;14.01;41.91;94312.09;5071219;28;20199;-70
2022/03/30 08:27:18;;;;;;;25.08;13.32;;;;;;;14.01;42.02;94308.66;5070066;28;20505;-70
2022/03/30 08:29:44;;;;;;;26.60;13.05;;;;;;;14.22;41.25;94311.63;5072148;28;20040;-70
2022/03/30 08:32:15;;;;;;;23.55;12.95;;;;;;;14.27;41.24;94309.34;5072195;28;20103;-70
2022/03/30 08:34:41;;;;;;;30.85;13.68;;;;;;;14.21;40.95;94314.41;5054759;28;20048;-70
2022/03/30 08:37:06;;;;;;;22.40;13.20;;;;;;;14.36;41.21;94309.38;5072093;28;20021;-70
2022/03/30 08:39:33;;;;;;;25.60;12.10;;;;;;;14.61;39.29;94295.34;5070930;28;20440;-70
2022/03/30 08:41:58;;;;;;;29.77;12.10;;;;;;;14.77;39.21;94296.34;5054340;28;20060;-70
2022/03/30 08:44:24;;;;;;;32.95;12.77;;;;;;;14.68;39.50;94298.97;5054161;28;20060;-70
2022/03/30 08:46:49;;;;;;;26.48;11.93;;;;;;;14.63;39.42;94285.56;5070669;28;20387;-70
2022/03/30 08:49:15;;;;;;;25.33;12.18;;;;;;;14.69;39.69;94292.72;5072176;28;20025;-70
2022/03/30 08:51:41;;;;;;;25.58;13.18;;;;;;;14.75;39.84;94297.31;5070561;28;20035;-70
2022/03/30 08:54:10;;;;;;;27.98;12.77;;;;;;;14.87;39.31;94289.94;5054049;28;20468;-70
2022/03/30 08:56:37;;;;;;;20.40;11.45;;;;;;;15.00;38.44;94280.78;5053886;28;20024;-70
2022/03/30 08:59:04;;;;;;;19.25;11.40;;;;;;;14.89;38.70;94272.28;5071905;28;20037;-70
2022/03/30 09:01:32;;;;;;;19.90;11.65;;;;;;;14.96;38.51;94272.44;5053798;28;20035;-71
2022/03/30 09:03:58;;;;;;;26.42;12.20;;;;;;;15.03;38.94;94257.69;5071762;28;20465;-70
2022/03/30 09:06:29;;;;;;;27.55;13.43;;;;;;;15.08;39.32;94242.31;5070285;28;20159;-70
2022/03/30 09:08:57;;;;;;;28.67;13.43;;;;;;;15.12;39.06;94248.84;5071732;28;20111;-70
2022/03/30 09:11:26;;;;;;;39.42;12.13;;;;;;;15.32;38.27;94254.53;5071373;28;20033;-70
2022/03/30 09:14:02;;;;;;;24.30;11.60;;;;;;;15.03;38.32;94249.84;5069972;28;20052;-70
2022/03/30 09:16:37;;;;;;;20.00;13.10;;;;;;;14.87;39.38;94248.09;5053510;28;20418;-70
2022/03/30 09:19:04;;;;;;;24.55;11.98;;;;;;;14.86;39.87;94250.88;5070108;28;20460;-71
2022/03/30 09:21:49;;;;;;;23.10;11.43;;;;;;;14.88;39.97;94241.91;5070375;28;20031;-71
2022/03/30 09:24:17;;;;;;;22.15;11.38;;;;;;;14.87;39.01;94234.19;5070256;28;20045;-71
2022/03/30 09:26:43;;;;;;;20.90;11.63;;;;;;;14.87;39.17;94226.34;5053942;28;20032;-72
2022/03/30 09:29:09;;;;;;;22.80;11.77;;;;;;;15.05;39.63;94220.94;5036605;28;20028;-71
2022/03/30 09:31:35;;;;;;;29.30;12.43;;;;;;;15.36;38.89;94210.50;5069828;28;20068;-71
2022/03/30 09:34:05;;;;;;;25.08;11.13;;;;;;;15.55;38.65;94207.47;5071443;28;20466;-72
2022/03/30 09:36:38;;;;;;;19.80;11.27;;;;;;;15.65;38.09;94208.03;5053563;28;20036;-71
2022/03/30 09:39:04;;;;;;;22.95;11.07;;;;;;;15.83;37.71;94209.63;5071326;28;20032;-71
2022/03/30 09:41:49;;;;;;;25.40;11.40;;;;;;;15.95;36.79;94187.25;5036408;28;20040;-72
2022/03/30 09:44:16;;;;;;;25.67;10.93;;;;;;;16.16;36.63;94206.75;5069895;28;20028;-71
2022/03/30 09:46:54;;;;;;;18.00;11.10;;;;;;;16.33;35.81;94205.66;5053394;28;20481;-72
2022/03/30 09:49:43;;;;;;;26.90;10.63;;;;;;;16.49;35.21;94183.69;5071396;28;20404;-72
2022/03/30 09:52:19;;;;;;;22.42;11.10;;;;;;;16.71;35.05;94180.19;5071058;28;20040;-71
2022/03/30 09:55:00;;;;;;;21.80;10.95;;;;;;;16.72;34.21;94170.56;5052890;28;20513;-71
2022/03/30 09:57:27;;;;;;;63.15;13.30;;;;;;;16.77;34.30;94165.63;5070934;28;20025;-71
2022/03/30 10:00:04;;;;;;;27.20;11.35;;;;;;;16.85;34.27;94149.75;5069625;28;20474;-72
2022/03/30 10:02:34;;;;;;;23.05;11.48;;;;;;;17.04;34.04;94144.97;5071064;28;20033;-71
2022/03/30 10:04:59;;;;;;;28.70;12.10;;;;;;;17.12;33.58;94127.31;5036369;28;20036;-72
2022/03/30 10:07:25;;;;;;;23.63;10.13;;;;;;;17.40;33.39;94151.03;5069777;28;20056;-71
2022/03/30 10:09:51;;;;;;;25.48;10.43;;;;;;;17.45;32.70;94152.31;5052863;28;20493;-71
2022/03/30 10:12:17;;;;;;;27.45;10.35;;;;;;;17.49;32.48;94129.94;5070633;28;20032;-72
2022/03/30 10:14:45;;;;;;;22.38;10.43;;;;;;;17.53;32.54;94139.09;5052865;28;20438;-71
2022/03/30 10:17:10;;;;;;;24.48;10.80;;;;;;;17.54;32.85;94130.19;5069523;28;20047;-71
2022/03/30 10:19:38;;;;;;;24.23;10.80;;;;;;;17.63;31.86;94115.94;5069406;28;20573;-72
2022/03/30 10:22:25;;;;;;;21.77;9.57;;;;;;;17.63;31.39;94115.94;5070813;28;20542;-72
2022/03/30 10:25:09;;;;;;;18.08;8.90;;;;;;;17.73;31.58;94107.75;5070599;28;20532;-71
2022/03/30 10:27:37;;;;;;;22.80;9.50;;;;;;;17.88;31.66;94115.59;5070560;28;20025;-72
2022/03/30 10:30:07;;;;;;;16.42;8.85;;;;;;;17.96;31.09;94121.53;5069455;28;20252;-71
2022/03/30 10:32:36;;;;;;;26.57;10.00;;;;;;;17.96;31.04;94107.59;5069558;28;20494;-71
2022/03/30 10:35:12;;;;;;;24.25;9.40;;;;;;;17.93;30.53;94092.22;5052900;28;20029;-71
2022/03/30 10:37:44;;;;;;;13.85;7.47;;;;;;;18.02;29.31;94083.19;5069287;28;20490;-71
2022/03/30 10:40:11;;;;;;;27.55;9.77;;;;;;;18.17;29.95;94075.22;5069330;28;20032;-71
2022/03/30 10:42:45;;;;;;;20.63;8.55;;;;;;;18.31;29.54;94088.25;5070308;28;20052;-71
2022/03/30 10:45:30;;;;;;;21.27;9.40;;;;;;;18.50;29.12;94078.06;5070472;28;20021;-71
2022/03/30 10:48:11;;;;;;;18.95;9.38;;;;;;;18.57;29.87;94076.28;5070471;28;20033;-71
2022/03/30 10:50:41;;;;;;;17.00;8.27;;;;;;;18.59;28.69;94082.16;5055444;28;20115;-71
2022/03/30 10:56:09;;;;;;;13.53;4.87;;;;;;;18.82;26.39;94060.03;5074445;28;20033;-71
2022/03/30 10:58:58;;;;;;;14.52;5.53;;;;;;;18.66;25.00;94063.78;5074317;28;20040;-71
2022/03/30 11:01:25;;;;;;;12.10;4.38;;;;;;;18.61;23.40;94060.91;5058836;28;20059;-71
2022/03/30 11:04:18;;;;;;;16.38;5.43;;;;;;;18.65;24.00;94060.34;5072758;28;20032;-71
2022/03/30 11:06:53;;;;;;;10.60;4.43;;;;;;;18.66;24.53;94059.31;5072950;28;20029;-71
2022/03/30 11:09:23;;;;;;;10.55;3.92;;;;;;;18.58;23.50;94042.91;5073748;28;20087;-72
2022/03/30 11:12:02;;;;;;;11.23;4.60;;;;;;;18.65;23.91;94039.28;5073778;28;20029;-72
2022/03/30 11:15:00;;;;;;;14.63;4.60;;;;;;;18.56;24.22;94048.38;5039912;28;20060;-71
2022/03/30 11:17:33;;;;;;;11.75;4.43;;;;;;;18.49;24.60;94034.34;5069388;28;20033;-71
2022/03/30 11:19:58;;;;;;;13.60;4.53;;;;;;;18.66;24.91;94050.63;5072368;28;20028;-72
2022/03/30 11:22:37;;;;;;;15.77;4.72;;;;;;;18.65;24.12;94056.91;5073638;28;20040;-71
2022/03/30 11:25:32;;;;;;;14.13;4.20;;;;;;;18.67;23.83;94055.72;5072781;28;20029;-71
2022/03/30 11:27:57;;;;;;;11.75;3.80;;;;;;;18.75;24.31;94060.84;5072519;28;20435;-72
2022/03/30 11:30:24;;;;;;;11.60;4.07;;;;;;;18.69;24.15;94068.66;5073627;28;20063;-71
2022/03/30 11:32:49;;;;;;;13.98;4.18;;;;;;;18.50;24.48;94062.28;5073694;28;20394;-71
2022/03/30 11:35:17;;;;;;;15.57;4.80;;;;;;;18.19;24.53;94049.53;5073516;28;20032;-71
2022/03/30 11:38:07;;;;;;;19.40;4.80;;;;;;;18.00;25.32;94051.84;5055980;28;20402;-71
2022/03/30 11:41:05;;;;;;;8.50;4.00;;;;;;;18.10;25.26;94041.00;5072400;28;20025;-71
2022/03/30 11:43:33;;;;;;;16.40;4.15;;;;;;;18.01;24.83;94050.03;5072033;28;20032;-71
2022/03/30 11:46:00;;;;;;;10.05;4.38;;;;;;;17.98;24.72;94032.84;5072107;28;20086;-71
2022/03/30 11:48:26;;;;;;;12.27;4.78;;;;;;;17.96;24.88;94034.81;5055552;28;20486;-71
2022/03/30 11:50:54;;;;;;;12.20;4.35;;;;;;;17.94;25.03;94036.03;5055068;28;20040;-71